createdAt,value
2018-12-13T00:02:16.486Z,2.10
2018-12-13T00:04:44.045Z,2.00
2018-12-13T00:07:11.620Z,2.00
2018-12-13T00:09:39.161Z,2.00
2018-12-13T00:12:06.731Z,1.90
2018-12-13T00:14:34.316Z,1.90
2018-12-13T00:17:01.854Z,1.80
2018-12-13T00:19:29.440Z,1.80
2018-12-13T00:21:57.009Z,1.80
2018-12-13T00:24:25.351Z,1.60
2018-12-13T00:26:52.886Z,1.60
2018-12-13T00:29:20.462Z,1.60
2018-12-13T00:31:48.035Z,1.50
2018-12-13T00:34:15.603Z,1.50
2018-12-13T00:36:43.143Z,1.60
2018-12-13T00:39:10.716Z,1.50
2018-12-13T00:41:39.056Z,1.60
2018-12-13T00:44:06.625Z,1.60
2018-12-13T00:46:34.190Z,1.60
2018-12-13T00:49:01.764Z,1.60
2018-12-13T00:51:31.055Z,1.70
2018-12-13T00:53:58.630Z,1.70
2018-12-13T00:56:26.180Z,1.80
2018-12-13T00:58:53.747Z,1.80
2018-12-13T01:01:22.052Z,1.70
2018-12-13T01:03:49.656Z,1.70
2018-12-13T01:06:17.196Z,1.60
2018-12-13T01:08:44.731Z,1.60
2018-12-13T01:11:12.301Z,1.60
2018-12-13T01:13:40.823Z,1.50
2018-12-13T01:16:09.348Z,1.50
2018-12-13T01:18:36.929Z,1.50
2018-12-13T01:21:04.479Z,1.50
2018-12-13T01:23:32.065Z,1.40
2018-12-13T01:25:59.622Z,1.30
2018-12-13T01:28:27.211Z,1.20
2018-12-13T01:30:55.529Z,1.00
2018-12-13T01:33:23.114Z,1.00
2018-12-13T01:35:51.632Z,1.10
2018-12-13T01:38:19.210Z,1.10
2018-12-13T01:40:46.758Z,1.30
2018-12-13T01:43:14.357Z,1.20
2018-12-13T01:45:42.837Z,1.30
2018-12-13T01:48:10.382Z,1.50
2018-12-13T01:50:38.932Z,1.80
2018-12-13T01:53:06.474Z,1.90
2018-12-13T01:55:34.050Z,2.20
2018-12-13T01:58:02.640Z,2.40
2018-12-13T02:00:30.189Z,2.50
2018-12-13T02:02:58.695Z,2.50
2018-12-13T02:05:26.276Z,2.50
2018-12-13T02:07:55.331Z,2.60
2018-12-13T02:10:22.914Z,2.60
2018-12-13T02:12:50.508Z,2.60
2018-12-13T02:15:18.051Z,2.70
2018-12-13T02:17:47.438Z,2.60
2018-12-13T02:20:16.004Z,2.60
2018-12-13T02:22:43.547Z,2.60
2018-12-13T02:25:11.748Z,2.50
2018-12-13T02:27:40.095Z,2.50
2018-12-13T02:30:09.631Z,2.50
2018-12-13T02:32:37.172Z,2.60
2018-12-13T02:35:04.773Z,2.50
2018-12-13T02:37:34.048Z,2.50
2018-12-13T02:40:01.629Z,2.50
2018-12-13T02:42:29.181Z,2.50
2018-12-13T02:44:56.755Z,2.60
2018-12-13T02:47:24.299Z,2.60
2018-12-13T02:49:51.868Z,2.60
2018-12-13T02:52:19.415Z,2.50
2018-12-13T02:54:47.007Z,2.50
2018-12-13T02:57:14.589Z,2.60
2018-12-13T02:59:42.170Z,2.50
2018-12-13T03:02:09.711Z,2.60
2018-12-13T03:04:37.266Z,2.50
2018-12-13T03:07:04.854Z,2.60
2018-12-13T03:09:32.404Z,2.40
2018-12-13T03:11:59.998Z,2.40
2018-12-13T03:14:27.541Z,2.40
2018-12-13T03:16:55.079Z,2.30
2018-12-13T03:19:22.660Z,2.20
2018-12-13T03:21:51.203Z,2.20
2018-12-13T03:24:19.549Z,2.10
2018-12-13T03:26:47.097Z,2.10
2018-12-13T03:29:16.667Z,2.10
2018-12-13T03:31:44.397Z,2.10
2018-12-13T03:34:11.898Z,2.00
2018-12-13T03:36:39.449Z,2.00
2018-12-13T03:39:07.030Z,2.00
2018-12-13T03:41:34.611Z,1.90
2018-12-13T03:44:02.201Z,1.80
2018-12-13T03:46:29.754Z,1.80
2018-12-13T03:48:57.336Z,1.80
2018-12-13T03:51:24.918Z,1.70
2018-12-13T03:53:52.496Z,1.60
2018-12-13T03:56:20.041Z,1.60
2018-12-13T03:58:47.711Z,1.60
2018-12-13T04:01:17.243Z,1.80
2018-12-13T04:03:45.590Z,1.80
2018-12-13T04:06:13.129Z,1.80
2018-12-13T04:08:40.712Z,1.90
2018-12-13T04:11:08.292Z,1.90
2018-12-13T04:13:36.638Z,1.90
2018-12-13T04:16:04.211Z,1.90
2018-12-13T04:18:33.744Z,1.90
2018-12-13T04:21:01.301Z,1.90
2018-12-13T04:23:28.900Z,2.00
2018-12-13T04:25:56.455Z,2.00
2018-12-13T04:28:24.032Z,2.00
2018-12-13T04:30:51.573Z,1.90
2018-12-13T04:33:19.156Z,2.00
2018-12-13T04:35:46.741Z,1.90
2018-12-13T04:38:16.248Z,1.90
2018-12-13T04:40:44.592Z,1.80
2018-12-13T04:43:27.065Z,1.80
2018-12-13T04:45:54.604Z,1.80
2018-12-13T04:48:22.184Z,1.80
2018-12-13T04:50:49.733Z,1.70
2018-12-13T04:53:17.305Z,1.70
2018-12-13T04:55:45.837Z,1.50
2018-12-13T04:58:13.416Z,1.60
2018-12-13T05:00:41.171Z,1.80
2018-12-13T05:03:08.883Z,1.80
2018-12-13T05:05:36.438Z,1.80
2018-12-13T05:08:04.009Z,2.00
2018-12-13T05:13:27.890Z,2.00
2018-12-13T05:15:55.440Z,2.20
2018-12-13T05:18:24.961Z,2.10
2018-12-13T05:20:52.505Z,1.90
2018-12-13T05:23:20.085Z,1.90
2018-12-13T05:25:47.624Z,1.80
2018-12-13T05:28:15.196Z,1.70
2018-12-13T05:30:42.736Z,1.70
2018-12-13T05:33:10.315Z,1.60
2018-12-13T05:35:38.874Z,1.50
2018-12-13T05:38:06.452Z,1.40
2018-12-13T05:40:33.991Z,1.30
2018-12-13T05:43:01.565Z,1.30
2018-12-13T05:45:29.144Z,1.30
2018-12-13T05:47:57.490Z,1.20
2018-12-13T05:50:25.041Z,1.20
2018-12-13T05:52:52.624Z,1.00
2018-12-13T05:55:20.272Z,1.00
2018-12-13T05:57:47.841Z,0.90
2018-12-13T06:00:15.392Z,0.90
2018-12-13T06:02:42.969Z,1.00
2018-12-13T06:05:10.561Z,0.90
2018-12-13T06:07:38.105Z,0.80
2018-12-13T06:10:06.720Z,0.80
2018-12-13T06:12:34.315Z,0.80
2018-12-13T06:15:01.900Z,0.80
2018-12-13T06:17:29.442Z,0.70
2018-12-13T06:19:57.787Z,0.60
2018-12-13T06:22:25.356Z,0.60
2018-12-13T06:24:52.938Z,0.70
2018-12-13T06:27:20.478Z,0.70
2018-12-13T06:29:49.058Z,0.60
2018-12-13T06:32:16.478Z,0.50
2018-12-13T06:34:44.072Z,0.50
2018-12-13T06:37:12.384Z,0.50
2018-12-13T06:39:39.925Z,0.50
2018-12-13T06:42:07.513Z,0.50
2018-12-13T06:44:36.039Z,0.50
2018-12-13T06:47:04.387Z,0.60
2018-12-13T06:49:31.941Z,0.60
2018-12-13T06:51:59.491Z,0.40
2018-12-13T06:54:27.079Z,0.50
2018-12-13T06:56:54.702Z,0.50
2018-12-13T06:59:22.277Z,0.50
2018-12-13T07:01:50.776Z,0.60
2018-12-13T07:04:18.357Z,0.50
2018-12-13T07:06:45.929Z,0.50
2018-12-13T07:09:13.519Z,0.50
2018-12-13T07:11:41.066Z,0.70
2018-12-13T07:14:08.643Z,0.80
2018-12-13T07:16:36.215Z,0.90
2018-12-13T07:19:03.797Z,0.80
2018-12-13T07:21:32.117Z,1.00
2018-12-13T07:23:59.705Z,0.90
2018-12-13T07:26:27.249Z,1.00
2018-12-13T07:28:54.824Z,1.00
2018-12-13T07:31:22.373Z,0.90
2018-12-13T07:33:49.969Z,1.00
2018-12-13T07:36:17.516Z,1.00
2018-12-13T07:38:46.801Z,1.30
2018-12-13T07:41:14.348Z,1.20
2018-12-13T07:43:41.898Z,1.30
2018-12-13T07:46:09.481Z,1.40
2018-12-13T07:48:37.789Z,1.30
2018-12-13T07:51:05.372Z,1.30
2018-12-13T07:53:32.961Z,1.40
2018-12-13T07:56:00.520Z,1.40
2018-12-13T07:58:29.820Z,1.10
2018-12-13T08:00:57.407Z,1.10
2018-12-13T08:03:24.955Z,0.90
2018-12-13T08:05:52.532Z,0.90
2018-12-13T08:08:21.038Z,0.80
2018-12-13T08:10:47.707Z,0.80
2018-12-13T08:13:15.262Z,0.90
2018-12-13T08:15:42.838Z,0.90
2018-12-13T08:18:10.395Z,0.90
2018-12-13T08:20:38.746Z,0.90
2018-12-13T08:23:06.306Z,0.90
2018-12-13T08:25:33.879Z,1.00
2018-12-13T08:28:01.997Z,1.00
2018-12-13T08:30:29.056Z,1.00
2018-12-13T08:32:56.598Z,1.00
2018-12-13T08:35:24.184Z,1.00
2018-12-13T08:37:51.728Z,1.10
2018-12-13T08:40:19.328Z,1.10
2018-12-13T08:42:47.650Z,1.10
2018-12-13T08:45:15.239Z,1.00
2018-12-13T08:47:42.783Z,1.00
2018-12-13T08:50:10.378Z,1.10
2018-12-13T08:52:38.688Z,1.30
2018-12-13T08:55:06.333Z,1.20
2018-12-13T08:57:33.864Z,1.30
2018-12-13T09:00:01.421Z,1.30
2018-12-13T09:02:29.771Z,1.40
2018-12-13T09:04:57.321Z,1.40
2018-12-13T09:07:24.896Z,1.30
2018-12-13T09:09:52.444Z,1.40
2018-12-13T09:12:20.020Z,1.40
2018-12-13T09:14:47.573Z,1.40
2018-12-13T09:17:15.156Z,1.20
2018-12-13T09:19:43.468Z,1.20
2018-12-13T09:22:11.044Z,1.10
2018-12-13T09:24:38.601Z,1.20
2018-12-13T09:27:06.184Z,1.20
2018-12-13T09:29:33.740Z,1.30
2018-12-13T09:32:01.321Z,1.40
2018-12-13T09:34:28.920Z,1.40
2018-12-13T09:36:57.420Z,1.50
2018-12-13T09:39:25.005Z,1.70
2018-12-13T09:41:53.354Z,1.80
2018-12-13T09:44:22.896Z,1.80
2018-12-13T09:46:50.457Z,1.90
2018-12-13T09:49:18.033Z,2.00
2018-12-13T09:51:46.582Z,1.80
2018-12-13T09:54:14.137Z,2.10
2018-12-13T09:56:42.491Z,2.30
2018-12-13T09:59:10.074Z,2.30
2018-12-13T10:01:37.657Z,2.20
2018-12-13T10:04:05.213Z,2.30
2018-12-13T10:06:32.792Z,2.40
2018-12-13T10:09:00.336Z,2.20
2018-12-13T10:11:27.917Z,2.60
2018-12-13T10:13:55.505Z,2.60
2018-12-13T10:16:23.090Z,2.70
2018-12-13T10:18:51.396Z,2.90
2018-12-13T10:21:19.993Z,2.80
2018-12-13T10:23:47.540Z,2.90
2018-12-13T10:26:15.134Z,3.00
2018-12-13T10:28:42.674Z,3.10
2018-12-13T10:31:10.239Z,3.00
2018-12-13T10:33:38.749Z,3.10
2018-12-13T10:36:07.325Z,3.20
2018-12-13T10:38:35.659Z,3.40
2018-12-13T10:41:03.254Z,3.30
2018-12-13T10:43:31.796Z,3.30
2018-12-13T10:45:59.376Z,3.00
2018-12-13T10:48:26.929Z,3.30
2018-12-13T10:50:54.516Z,3.20
2018-12-13T10:53:22.829Z,3.30
2018-12-13T10:55:50.406Z,3.30
2018-12-13T10:58:18.911Z,3.40
2018-12-13T11:03:40.769Z,3.00
2018-12-13T11:06:08.363Z,2.70
2018-12-13T11:08:35.917Z,2.90
2018-12-13T11:11:03.557Z,3.00
2018-12-13T11:13:31.099Z,3.20
2018-12-13T11:15:59.414Z,3.60
2018-12-13T11:18:26.984Z,3.60
2018-12-13T11:20:54.602Z,3.70
2018-12-13T11:23:22.173Z,3.70
2018-12-13T11:25:49.728Z,3.70
2018-12-13T11:31:12.499Z,3.50
2018-12-13T11:33:40.081Z,3.30
2018-12-13T11:36:07.643Z,3.00
2018-12-13T11:38:38.869Z,3.00
2018-12-13T11:41:06.451Z,3.10
2018-12-13T11:43:34.052Z,3.30
2018-12-13T11:46:02.365Z,3.20
2018-12-13T11:48:29.928Z,3.20
2018-12-13T11:50:57.499Z,3.20
2018-12-13T11:53:25.074Z,3.40
2018-12-13T11:55:52.621Z,3.30
2018-12-13T11:58:20.193Z,3.30
2018-12-13T12:00:47.742Z,3.50
2018-12-13T12:03:15.320Z,3.40
2018-12-13T12:05:42.865Z,3.40
2018-12-13T12:08:10.404Z,3.40
2018-12-13T12:10:37.980Z,3.40
2018-12-13T12:13:06.283Z,3.20
2018-12-13T12:15:33.869Z,3.20
2018-12-13T12:18:01.435Z,3.10
2018-12-13T12:20:28.994Z,3.10
2018-12-13T12:22:56.661Z,3.00
2018-12-13T12:25:24.243Z,3.00
2018-12-13T12:27:51.835Z,3.10
2018-12-13T12:30:20.316Z,3.00
2018-12-13T12:32:49.868Z,2.80
2018-12-13T12:35:17.413Z,2.90
2018-12-13T12:37:44.987Z,2.90
2018-12-13T12:40:12.534Z,3.00
2018-12-13T12:42:40.104Z,2.90
2018-12-13T12:45:07.664Z,2.70
2018-12-13T12:47:35.241Z,2.70
2018-12-13T12:50:03.549Z,2.80
2018-12-13T12:52:31.157Z,2.80
2018-12-13T12:54:58.695Z,2.80
2018-12-13T12:57:26.237Z,2.70
2018-12-13T12:59:53.812Z,2.50
2018-12-13T13:02:21.404Z,2.50
2018-12-13T13:04:49.003Z,2.30
2018-12-13T13:07:16.558Z,2.10
2018-12-13T13:09:44.147Z,2.30
2018-12-13T13:12:12.776Z,2.30
2018-12-13T13:14:40.349Z,2.40
2018-12-13T13:17:08.005Z,2.40
2018-12-13T13:19:35.592Z,2.20
2018-12-13T13:22:03.144Z,2.30
2018-12-13T13:24:30.740Z,2.40
2018-12-13T13:26:58.323Z,2.20
2018-12-13T13:29:25.900Z,2.20
2018-12-13T13:31:53.465Z,2.30
2018-12-13T13:34:21.033Z,2.30
2018-12-13T13:36:48.627Z,2.50
2018-12-13T13:39:16.207Z,2.50
2018-12-13T13:41:43.765Z,2.50
2018-12-13T13:44:11.353Z,2.40
2018-12-13T13:46:38.913Z,2.50
2018-12-13T13:49:06.495Z,2.60
2018-12-13T13:51:34.041Z,2.70
2018-12-13T13:54:01.620Z,2.60
2018-12-13T13:56:29.165Z,2.60
2018-12-13T13:58:56.752Z,2.70
2018-12-13T14:01:24.289Z,2.80
2018-12-13T14:03:51.864Z,2.50
2018-12-13T14:06:19.449Z,2.50
2018-12-13T14:08:47.033Z,2.50
2018-12-13T14:11:14.580Z,2.60
2018-12-13T14:13:42.152Z,2.60
2018-12-13T14:16:09.728Z,2.60
2018-12-13T14:18:37.280Z,2.60
2018-12-13T14:21:04.869Z,2.50
2018-12-13T14:23:32.408Z,2.50
2018-12-13T14:25:59.986Z,2.40
2018-12-13T14:28:27.532Z,2.50
2018-12-13T14:30:55.107Z,2.50
2018-12-13T14:33:24.388Z,2.70
2018-12-13T14:35:52.926Z,2.70
2018-12-13T14:38:21.429Z,2.70
2018-12-13T14:40:49.010Z,2.80
2018-12-13T14:43:16.583Z,3.00
2018-12-13T14:45:44.128Z,2.70
2018-12-13T14:48:11.701Z,2.80
2018-12-13T14:50:39.283Z,2.80
2018-12-13T14:53:06.856Z,2.80
2018-12-13T14:55:34.417Z,2.60
2018-12-13T14:58:01.988Z,2.70
2018-12-13T15:00:29.571Z,2.60
2018-12-13T15:02:57.169Z,2.70
2018-12-13T15:05:24.724Z,2.70
2018-12-13T15:07:52.306Z,2.80
2018-12-13T15:10:19.882Z,2.80
2018-12-13T15:12:47.469Z,2.80
2018-12-13T15:15:15.030Z,2.80
2018-12-13T15:17:42.588Z,2.70
2018-12-13T15:20:11.848Z,2.60
2018-12-13T15:22:40.364Z,2.60
2018-12-13T15:25:08.916Z,2.70
2018-12-13T15:27:36.842Z,2.70
2018-12-13T15:30:05.515Z,2.80
2018-12-13T15:32:33.075Z,2.80
2018-12-13T15:35:00.620Z,2.80
2018-12-13T15:37:28.965Z,2.40
2018-12-13T15:39:57.507Z,2.40
2018-12-13T15:42:25.105Z,2.50
2018-12-13T15:44:52.690Z,2.60
2018-12-13T15:47:20.242Z,2.60
2018-12-13T15:49:47.828Z,2.40
2018-12-13T15:52:15.422Z,2.50
2018-12-13T15:54:42.992Z,2.50
2018-12-13T15:57:11.497Z,2.40
2018-12-13T15:59:39.088Z,2.30
2018-12-13T16:02:06.665Z,2.30
2018-12-13T16:04:34.221Z,2.30
2018-12-13T16:07:01.800Z,2.50
2018-12-13T16:09:29.621Z,2.60
2018-12-13T16:11:59.182Z,2.60
2018-12-13T16:14:26.726Z,2.60
2018-12-13T16:16:54.301Z,2.60
2018-12-13T16:19:21.856Z,2.60
2018-12-13T16:21:49.473Z,2.60
2018-12-13T16:24:17.126Z,2.60
2018-12-13T16:26:44.668Z,2.70
2018-12-13T16:29:12.343Z,2.70
2018-12-13T16:31:39.931Z,2.60
2018-12-13T16:34:07.513Z,2.50
2018-12-13T16:36:35.845Z,2.50
2018-12-13T16:39:03.460Z,2.50
2018-12-13T16:41:31.050Z,2.60
2018-12-13T16:43:58.624Z,2.60
2018-12-13T16:46:26.172Z,2.60
2018-12-13T16:48:53.786Z,2.60
2018-12-13T16:51:22.133Z,2.60
2018-12-13T16:53:50.678Z,2.60
2018-12-13T16:56:19.206Z,2.50
2018-12-13T16:58:46.793Z,2.60
2018-12-13T17:01:14.383Z,2.40
2018-12-13T17:03:41.934Z,2.40
2018-12-13T17:06:09.521Z,2.50
2018-12-13T17:08:37.061Z,2.40
2018-12-13T17:11:04.662Z,2.50
2018-12-13T17:13:32.232Z,2.50
2018-12-13T17:15:59.870Z,2.50
2018-12-13T17:18:27.415Z,2.50
2018-12-13T17:20:55.040Z,2.40
2018-12-13T17:23:22.601Z,2.50
2018-12-13T17:25:50.197Z,2.50
2018-12-13T17:28:17.769Z,2.60
2018-12-13T17:30:45.353Z,2.40
2018-12-13T17:33:12.901Z,2.20
2018-12-13T17:35:41.239Z,2.20
2018-12-13T17:38:08.789Z,2.10
2018-12-13T17:40:36.368Z,2.10
2018-12-13T17:43:04.888Z,2.30
2018-12-13T17:45:32.480Z,2.30
2018-12-13T17:48:00.034Z,2.20
2018-12-13T17:50:28.596Z,2.10
2018-12-13T17:52:56.157Z,2.20
2018-12-13T17:55:23.705Z,2.30
2018-12-13T17:57:52.296Z,2.20
2018-12-13T18:00:19.904Z,2.00
2018-12-13T18:02:47.485Z,2.00
2018-12-13T18:05:15.049Z,2.10
2018-12-13T18:07:42.648Z,2.00
2018-12-13T18:10:10.243Z,2.10
2018-12-13T18:12:38.557Z,2.00
2018-12-13T18:15:06.317Z,1.90
2018-12-13T18:17:34.103Z,2.00
2018-12-13T18:20:03.692Z,2.00
2018-12-13T18:22:31.253Z,2.10
2018-12-13T18:24:58.840Z,2.10
2018-12-13T18:27:26.465Z,2.20
2018-12-13T18:29:55.985Z,2.30
2018-12-13T18:32:24.505Z,2.20
2018-12-13T18:34:52.306Z,2.00
2018-12-13T18:37:19.909Z,2.00
2018-12-13T18:39:48.272Z,2.20
2018-12-13T18:42:15.825Z,2.20
2018-12-13T18:44:43.429Z,2.10
2018-12-13T18:47:10.985Z,2.00
2018-12-13T18:49:39.334Z,1.90
2018-12-13T18:52:07.098Z,1.80
2018-12-13T18:54:34.943Z,1.90
2018-12-13T18:57:02.500Z,1.90
2018-12-13T18:59:30.110Z,1.80
2018-12-13T19:01:57.664Z,1.80
2018-12-13T19:04:25.249Z,1.80
2018-12-13T19:06:52.806Z,1.80
2018-12-13T19:09:22.349Z,1.80
2018-12-13T19:11:49.904Z,2.00
2018-12-13T19:14:17.514Z,2.00
2018-12-13T19:16:45.063Z,2.00
2018-12-13T19:19:12.628Z,1.90
2018-12-13T19:21:40.218Z,1.90
2018-12-13T19:24:07.785Z,1.90
2018-12-13T19:26:35.360Z,1.90
2018-12-13T19:29:03.667Z,2.10
2018-12-13T19:31:31.249Z,2.10
2018-12-13T19:33:58.829Z,2.00
2018-12-13T19:36:26.418Z,1.90
2018-12-13T19:38:53.975Z,1.90
2018-12-13T19:41:22.341Z,1.80
2018-12-13T19:43:49.903Z,1.80
2018-12-13T19:46:17.487Z,1.80
2018-12-13T19:48:45.044Z,1.80
2018-12-13T19:51:12.597Z,1.80
2018-12-13T19:53:40.190Z,1.90
2018-12-13T19:56:07.745Z,1.90
2018-12-13T19:58:37.274Z,1.90
2018-12-13T20:01:04.861Z,1.80
2018-12-13T20:03:32.564Z,1.80
2018-12-13T20:06:01.087Z,1.80
2018-12-13T20:08:29.444Z,1.90
2018-12-13T20:10:57.040Z,1.90
2018-12-13T20:13:25.428Z,1.90
2018-12-13T20:15:52.981Z,1.90
2018-12-13T20:18:21.131Z,1.90
2018-12-13T20:20:50.639Z,1.90
2018-12-13T20:23:18.189Z,1.90
2018-12-13T20:25:45.776Z,1.80
2018-12-13T20:28:13.325Z,1.90
2018-12-13T20:30:40.883Z,1.90
2018-12-13T20:33:08.543Z,1.90
2018-12-13T20:35:38.125Z,1.90
2018-12-13T20:38:05.715Z,2.00
2018-12-13T20:40:34.212Z,1.90
2018-12-13T20:43:01.796Z,2.00
2018-12-13T20:45:29.396Z,2.00
2018-12-13T20:47:57.749Z,2.00
2018-12-13T20:50:25.574Z,2.00
2018-12-13T20:52:53.252Z,1.90
2018-12-13T20:55:20.854Z,1.90
2018-12-13T20:57:50.381Z,1.70
2018-12-13T21:00:17.941Z,1.60
2018-12-13T21:02:45.532Z,1.60
2018-12-13T21:05:13.152Z,1.50
2018-12-13T21:07:40.724Z,1.30
2018-12-13T21:10:08.294Z,1.40
2018-12-13T21:12:37.863Z,1.40
2018-12-13T21:15:06.427Z,1.40
2018-12-13T21:17:34.020Z,1.40
2018-12-13T21:20:01.649Z,1.20
2018-12-13T21:22:29.199Z,1.30
2018-12-13T21:24:57.544Z,1.20
2018-12-13T21:27:25.130Z,1.20
2018-12-13T21:29:52.719Z,1.20
2018-12-13T21:32:20.273Z,1.20
2018-12-13T21:34:47.875Z,1.20
2018-12-13T21:37:15.451Z,1.10
2018-12-13T21:39:43.053Z,1.00
2018-12-13T21:42:10.596Z,1.20
2018-12-13T21:44:38.190Z,1.10
2018-12-13T21:47:05.740Z,1.00
2018-12-13T21:49:33.320Z,1.00
2018-12-13T21:52:00.872Z,1.00
2018-12-13T21:54:28.456Z,0.90
2018-12-13T21:56:56.030Z,0.80
2018-12-13T21:59:24.379Z,0.90
2018-12-13T22:01:51.919Z,0.90
2018-12-13T22:04:19.510Z,0.80
2018-12-13T22:06:47.059Z,0.80
2018-12-13T22:09:14.646Z,0.80
2018-12-13T22:11:43.154Z,0.90
2018-12-13T22:14:10.740Z,1.00
2018-12-13T22:16:38.288Z,0.90
2018-12-13T22:19:05.872Z,0.70
2018-12-13T22:21:34.430Z,0.70
2018-12-13T22:24:02.040Z,0.70
2018-12-13T22:26:29.597Z,0.70
2018-12-13T22:28:57.180Z,0.50
2018-12-13T22:31:24.761Z,0.60
2018-12-13T22:33:52.358Z,0.70
2018-12-13T22:36:19.908Z,0.70
2018-12-13T22:38:48.313Z,0.40
2018-12-13T22:41:15.898Z,0.40
2018-12-13T22:43:43.485Z,0.30
2018-12-13T22:46:11.069Z,0.30
2018-12-13T22:48:38.696Z,0.30
2018-12-13T22:51:06.293Z,0.50
2018-12-13T22:53:33.880Z,0.50
2018-12-13T22:56:01.425Z,0.50
2018-12-13T22:58:31.006Z,0.30
2018-12-13T23:00:59.329Z,0.40
2018-12-13T23:03:26.918Z,0.30
2018-12-13T23:05:55.559Z,0.30
2018-12-13T23:08:23.145Z,0.20
2018-12-13T23:10:51.660Z,0.10
2018-12-13T23:13:20.013Z,0.20
2018-12-13T23:15:47.569Z,0.20
2018-12-13T23:18:15.112Z,0.20
2018-12-13T23:20:42.700Z,0.20
2018-12-13T23:23:11.017Z,0.00
2018-12-13T23:25:38.613Z,0.00
2018-12-13T23:28:06.195Z,0.00
2018-12-13T23:30:33.755Z,0.10
2018-12-13T23:33:02.107Z,0.00
2018-12-13T23:35:29.693Z,0.00
2018-12-13T23:37:59.267Z,0.10
2018-12-13T23:40:26.827Z,0.10
2018-12-13T23:42:54.422Z,0.10
2018-12-13T23:45:22.045Z,0.10
2018-12-13T23:47:49.592Z,0.10
2018-12-13T23:50:17.169Z,0.10
2018-12-13T23:52:44.716Z,0.20
2018-12-13T23:55:13.295Z,0.20
2018-12-13T23:57:40.842Z,0.20
